createdAt,value
2018-08-07T00:00:26.281Z,0
2018-08-07T00:01:34.351Z,0
2018-08-07T00:02:42.437Z,0
2018-08-07T00:03:50.853Z,0
2018-08-07T00:04:59.180Z,0
2018-08-07T00:06:06.648Z,0
2018-08-07T00:07:14.713Z,0
2018-08-07T00:08:22.781Z,0
2018-08-07T00:09:34.223Z,0
2018-08-07T00:10:39.032Z,0
2018-08-07T00:11:47.116Z,0
2018-08-07T00:12:55.069Z,0
2018-08-07T00:14:05.308Z,0
2018-08-07T00:15:11.259Z,0
2018-08-07T00:16:19.418Z,0
2018-08-07T00:17:27.352Z,0
2018-08-07T00:18:35.422Z,0
2018-08-07T00:19:43.497Z,0
2018-08-07T00:20:51.733Z,0
2018-08-07T00:21:59.634Z,0
2018-08-07T00:23:07.734Z,0
2018-08-07T00:24:15.758Z,0
2018-08-07T00:25:23.911Z,0
2018-08-07T00:26:32.091Z,0
2018-08-07T00:27:40.003Z,0
2018-08-07T00:28:51.462Z,0
2018-08-07T00:29:56.136Z,0
2018-08-07T00:31:05.799Z,0
2018-08-07T00:32:12.292Z,0
2018-08-07T00:33:21.941Z,0
2018-08-07T00:34:28.526Z,0
2018-08-07T00:35:36.517Z,0
2018-08-07T00:36:44.576Z,0
2018-08-07T00:37:52.694Z,0
2018-08-07T00:39:00.742Z,0
2018-08-07T00:40:08.817Z,0
2018-08-07T00:41:17.263Z,0
2018-08-07T00:42:24.950Z,0
2018-08-07T00:43:33.105Z,0
2018-08-07T00:44:41.062Z,0
2018-08-07T00:45:49.145Z,0
2018-08-07T00:46:57.219Z,0
2018-08-07T00:48:05.280Z,0
2018-08-07T00:49:13.358Z,0
2018-08-07T00:50:21.429Z,0
2018-08-07T00:51:29.498Z,0
2018-08-07T00:52:37.582Z,0
2018-08-07T00:53:45.903Z,0
2018-08-07T00:54:53.720Z,0
2018-08-07T00:56:01.801Z,0
2018-08-07T00:57:10.178Z,0
2018-08-07T00:58:17.915Z,0
2018-08-07T00:59:25.998Z,0
2018-08-07T01:00:34.076Z,0
2018-08-07T01:01:42.297Z,0
2018-08-07T01:02:50.206Z,0
2018-08-07T01:03:59.117Z,0
2018-08-07T01:05:06.336Z,0
2018-08-07T01:06:14.446Z,0
2018-08-07T01:07:22.486Z,0
2018-08-07T01:08:30.584Z,0
2018-08-07T01:09:38.630Z,0
2018-08-07T01:10:46.715Z,0
2018-08-07T01:11:54.773Z,0
2018-08-07T01:13:02.882Z,0
2018-08-07T01:14:10.924Z,0
2018-08-07T01:15:19.018Z,0
2018-08-07T01:16:27.061Z,0
2018-08-07T01:17:35.124Z,0
2018-08-07T01:18:43.392Z,0
2018-08-07T01:19:51.289Z,0
2018-08-07T01:20:59.355Z,0
2018-08-07T01:22:07.408Z,0
2018-08-07T01:23:15.460Z,0
2018-08-07T01:24:23.850Z,0
2018-08-07T01:25:35.059Z,0
2018-08-07T01:26:46.651Z,0
2018-08-07T01:27:49.195Z,0
2018-08-07T01:28:55.826Z,0
2018-08-07T01:30:04.063Z,0
2018-08-07T01:31:12.002Z,0
2018-08-07T01:32:20.360Z,0
2018-08-07T01:33:28.135Z,0
2018-08-07T01:34:36.310Z,0
2018-08-07T01:35:44.536Z,0
2018-08-07T01:36:52.359Z,0
2018-08-07T01:38:00.410Z,0
2018-08-07T01:39:08.495Z,0
2018-08-07T01:40:16.555Z,0
2018-08-07T01:41:25.652Z,0
2018-08-07T01:42:32.698Z,0
2018-08-07T01:43:40.751Z,0
2018-08-07T01:44:48.851Z,0
2018-08-07T01:47:14.149Z,0
2018-08-07T01:48:22.699Z,0
2018-08-07T01:49:31.972Z,0
2018-08-07T01:50:38.481Z,0
2018-08-07T01:51:46.545Z,0
2018-08-07T01:52:54.622Z,0
2018-08-07T01:54:02.782Z,0
2018-08-07T01:55:10.762Z,0
2018-08-07T01:56:18.838Z,0
2018-08-07T01:57:26.906Z,0
2018-08-07T01:58:34.995Z,0
2018-08-07T01:59:43.301Z,0
2018-08-07T02:00:51.133Z,0
2018-08-07T02:01:59.209Z,0
2018-08-07T02:03:07.276Z,0
2018-08-07T02:04:15.321Z,0
2018-08-07T02:05:26.946Z,0
2018-08-07T02:06:31.475Z,0
2018-08-07T02:07:39.555Z,0
2018-08-07T02:08:47.609Z,0
2018-08-07T02:09:55.677Z,0
2018-08-07T02:11:03.752Z,0
2018-08-07T02:12:11.837Z,0
2018-08-07T02:13:19.893Z,0
2018-08-07T02:14:28.083Z,0
2018-08-07T02:15:36.011Z,0
2018-08-07T02:16:44.107Z,0
2018-08-07T02:17:52.178Z,0
2018-08-07T02:19:00.253Z,0
2018-08-07T02:20:08.394Z,0
2018-08-07T02:21:16.393Z,0
2018-08-07T02:22:25.925Z,0
2018-08-07T02:23:32.525Z,0
2018-08-07T02:24:42.252Z,0
2018-08-07T02:25:48.728Z,0
2018-08-07T02:27:00.159Z,0
2018-08-07T02:28:04.809Z,0
2018-08-07T02:29:12.912Z,0
2018-08-07T02:30:20.973Z,0
2018-08-07T02:31:29.151Z,0
2018-08-07T02:32:37.099Z,0
2018-08-07T02:33:45.192Z,0
2018-08-07T02:34:53.239Z,0
2018-08-07T02:36:01.338Z,0
2018-08-07T02:37:09.387Z,0
2018-08-07T02:38:17.459Z,0
2018-08-07T02:39:25.637Z,0
2018-08-07T02:40:33.600Z,0
2018-08-07T02:41:41.737Z,0
2018-08-07T02:42:49.754Z,0
2018-08-07T02:43:57.873Z,0
2018-08-07T02:45:06.135Z,0
2018-08-07T02:46:13.945Z,0
2018-08-07T02:47:22.124Z,0
2018-08-07T02:48:30.115Z,0
2018-08-07T02:49:38.162Z,0
2018-08-07T02:50:46.252Z,0
2018-08-07T02:51:54.290Z,0
2018-08-07T02:53:03.931Z,0
2018-08-07T02:54:10.468Z,0
2018-08-07T02:55:18.542Z,0
2018-08-07T02:56:26.590Z,0
2018-08-07T02:57:34.677Z,0
2018-08-07T02:58:42.736Z,0
2018-08-07T02:59:50.816Z,0
2018-08-07T03:00:58.866Z,0
2018-08-07T03:02:06.960Z,0
2018-08-07T03:03:15.022Z,0
2018-08-07T03:04:23.104Z,0
2018-08-07T03:05:31.362Z,0
2018-08-07T03:06:39.535Z,0
2018-08-07T03:07:48.549Z,0
2018-08-07T03:08:59.341Z,0
2018-08-07T03:10:03.835Z,0
2018-08-07T03:11:15.333Z,0
2018-08-07T03:12:19.994Z,0
2018-08-07T03:13:29.852Z,0
2018-08-07T03:14:36.361Z,0
2018-08-07T03:15:44.185Z,0
2018-08-07T03:16:52.289Z,0
2018-08-07T03:18:00.947Z,0
2018-08-07T03:19:10.077Z,0
2018-08-07T03:20:17.077Z,0
2018-08-07T03:21:31.494Z,0
2018-08-07T03:22:35.894Z,0
2018-08-07T03:23:43.698Z,0
2018-08-07T03:24:54.172Z,0
2018-08-07T03:26:02.721Z,0
2018-08-07T03:27:07.897Z,0
2018-08-07T03:28:16.447Z,0
2018-08-07T03:29:24.050Z,0
2018-08-07T03:30:32.353Z,0
2018-08-07T03:31:40.178Z,0
2018-08-07T03:32:48.251Z,0
2018-08-07T03:33:56.311Z,0
2018-08-07T03:35:04.394Z,0
2018-08-07T03:36:12.446Z,0
2018-08-07T03:37:20.747Z,0
2018-08-07T03:38:28.869Z,0
2018-08-07T03:39:36.975Z,0
2018-08-07T03:40:44.945Z,0
2018-08-07T03:41:53.061Z,0
2018-08-07T03:43:01.105Z,0
2018-08-07T03:44:09.147Z,0
2018-08-07T03:45:17.854Z,0
2018-08-07T03:46:25.491Z,0
2018-08-07T03:47:33.587Z,0
2018-08-07T03:48:41.640Z,0
2018-08-07T03:49:49.821Z,0
2018-08-07T03:50:58.045Z,0
2018-08-07T03:52:05.939Z,0
2018-08-07T03:53:13.925Z,0
2018-08-07T03:54:22.104Z,0
2018-08-07T03:55:30.060Z,0
2018-08-07T03:56:38.403Z,0
2018-08-07T03:57:46.191Z,0
2018-08-07T03:58:54.279Z,0
2018-08-07T04:00:02.349Z,0
2018-08-07T04:01:10.409Z,0
2018-08-07T04:02:18.479Z,0
2018-08-07T04:03:26.567Z,0
2018-08-07T04:04:34.635Z,0
2018-08-07T04:05:42.716Z,0
2018-08-07T04:06:50.765Z,5
2018-08-07T04:07:58.936Z,5
2018-08-07T04:09:06.931Z,5
2018-08-07T04:10:15.334Z,5
2018-08-07T04:11:23.150Z,5
2018-08-07T04:12:31.168Z,5
2018-08-07T04:13:39.213Z,5
2018-08-07T04:14:47.271Z,10
2018-08-07T04:15:56.254Z,10
2018-08-07T04:17:03.410Z,10
2018-08-07T04:18:11.585Z,10
2018-08-07T04:19:19.852Z,15
2018-08-07T04:20:27.695Z,15
2018-08-07T04:21:35.673Z,15
2018-08-07T04:22:43.805Z,20
2018-08-07T04:23:51.847Z,20
2018-08-07T04:24:59.939Z,20
2018-08-07T04:26:08.266Z,25
2018-08-07T04:27:16.287Z,25
2018-08-07T04:28:24.342Z,30
2018-08-07T04:29:32.450Z,30
2018-08-07T04:30:40.488Z,30
2018-08-07T04:31:48.569Z,35
2018-08-07T04:32:56.632Z,35
2018-08-07T04:34:04.708Z,40
2018-08-07T04:35:12.770Z,40
2018-08-07T04:36:22.236Z,45
2018-08-07T04:37:29.001Z,45
2018-08-07T04:38:36.996Z,50
2018-08-07T04:39:45.239Z,50
2018-08-07T04:40:58.294Z,50
2018-08-07T04:42:05.724Z,55
2018-08-07T04:43:13.691Z,55
2018-08-07T04:44:23.099Z,60
2018-08-07T04:45:32.017Z,60
2018-08-07T04:46:37.916Z,60
2018-08-07T04:47:45.951Z,65
2018-08-07T04:48:54.040Z,70
2018-08-07T04:50:02.125Z,70
2018-08-07T04:51:10.359Z,75
2018-08-07T04:52:18.272Z,75
2018-08-07T04:53:26.313Z,80
2018-08-07T04:54:34.411Z,80
2018-08-07T04:55:42.463Z,80
2018-08-07T04:56:50.544Z,85
2018-08-07T04:57:58.624Z,85
2018-08-07T04:59:06.688Z,85
2018-08-07T05:00:14.753Z,90
2018-08-07T05:01:26.166Z,90
2018-08-07T05:02:30.871Z,95
2018-08-07T05:03:38.949Z,100
2018-08-07T05:04:47.408Z,105
2018-08-07T05:05:55.092Z,110
2018-08-07T05:07:03.275Z,120
2018-08-07T05:08:11.280Z,130
2018-08-07T05:09:19.822Z,135
2018-08-07T05:10:28.199Z,145
2018-08-07T05:11:35.553Z,145
2018-08-07T05:12:43.484Z,145
2018-08-07T05:13:51.579Z,150
2018-08-07T05:14:59.626Z,150
2018-08-07T05:16:07.752Z,150
2018-08-07T05:17:15.766Z,155
2018-08-07T05:18:23.856Z,160
2018-08-07T05:19:31.890Z,165
2018-08-07T05:20:40.258Z,160
2018-08-07T05:21:48.033Z,165
2018-08-07T05:22:56.440Z,165
2018-08-07T05:24:04.250Z,170
2018-08-07T05:25:12.258Z,175
2018-08-07T05:26:20.293Z,180
2018-08-07T05:27:28.492Z,190
2018-08-07T05:28:36.507Z,200
2018-08-07T05:29:44.514Z,210
2018-08-07T05:30:52.673Z,220
2018-08-07T05:32:00.651Z,230
2018-08-07T05:33:08.710Z,235
2018-08-07T05:34:16.804Z,235
2018-08-07T05:35:24.870Z,240
2018-08-07T05:36:32.934Z,240
2018-08-07T05:37:40.994Z,250
2018-08-07T05:38:49.078Z,250
2018-08-07T05:39:57.166Z,250
2018-08-07T05:41:05.277Z,255
2018-08-07T05:42:13.340Z,260
2018-08-07T05:43:21.353Z,270
2018-08-07T05:44:29.448Z,275
2018-08-07T05:45:37.508Z,280
2018-08-07T05:46:45.665Z,285
2018-08-07T05:47:53.650Z,290
2018-08-07T05:49:01.756Z,295
2018-08-07T05:50:09.995Z,295
2018-08-07T05:51:18.230Z,300
2018-08-07T05:52:25.917Z,300
2018-08-07T05:53:34.041Z,300
2018-08-07T05:54:42.105Z,300
2018-08-07T05:55:50.225Z,300
2018-08-07T05:56:58.250Z,305
2018-08-07T05:58:06.321Z,300
2018-08-07T05:59:14.796Z,300
2018-08-07T06:00:22.475Z,295
2018-08-07T06:01:31.942Z,285
2018-08-07T06:02:38.617Z,275
2018-08-07T06:03:46.910Z,265
2018-08-07T06:04:54.788Z,260
2018-08-07T06:06:03.244Z,250
2018-08-07T06:07:11.220Z,250
2018-08-07T06:08:19.209Z,245
2018-08-07T06:09:27.264Z,240
2018-08-07T06:10:35.343Z,245
2018-08-07T06:11:43.425Z,240
2018-08-07T06:12:51.612Z,235
2018-08-07T06:13:59.704Z,235
2018-08-07T06:15:07.661Z,235
2018-08-07T06:16:15.687Z,235
2018-08-07T06:17:23.815Z,240
2018-08-07T06:18:31.869Z,245
2018-08-07T06:19:40.941Z,250
2018-08-07T06:20:48.009Z,255
2018-08-07T06:21:56.155Z,260
2018-08-07T06:23:04.156Z,265
2018-08-07T06:24:12.236Z,265
2018-08-07T06:25:20.308Z,265
2018-08-07T06:26:28.387Z,270
2018-08-07T06:27:36.449Z,270
2018-08-07T06:28:44.540Z,275
2018-08-07T06:29:52.862Z,280
2018-08-07T06:31:00.689Z,285
2018-08-07T06:32:09.793Z,290
2018-08-07T06:33:16.820Z,295
2018-08-07T06:34:25.025Z,295
2018-08-07T06:35:32.971Z,295
2018-08-07T06:36:41.099Z,295
2018-08-07T06:37:49.147Z,290
2018-08-07T06:38:57.225Z,290
2018-08-07T06:40:05.272Z,290
2018-08-07T06:41:13.369Z,290
2018-08-07T06:42:21.434Z,290
2018-08-07T06:43:29.523Z,285
2018-08-07T06:44:37.574Z,280
2018-08-07T06:45:45.644Z,280
2018-08-07T06:46:53.730Z,290
2018-08-07T06:48:01.839Z,300
2018-08-07T06:49:09.877Z,300
2018-08-07T06:50:18.211Z,300
2018-08-07T06:51:26.239Z,300
2018-08-07T06:52:34.310Z,310
2018-08-07T06:53:42.388Z,315
2018-08-07T06:54:50.493Z,315
2018-08-07T06:55:59.917Z,320
2018-08-07T06:57:06.603Z,320
2018-08-07T06:58:14.948Z,325
2018-08-07T06:59:22.744Z,320
2018-08-07T07:00:30.847Z,315
2018-08-07T07:01:38.899Z,315
2018-08-07T07:02:47.312Z,325
2018-08-07T07:03:55.308Z,325
2018-08-07T07:05:03.137Z,330
2018-08-07T07:06:11.384Z,330
2018-08-07T07:07:19.619Z,330
2018-08-07T07:08:27.541Z,335
2018-08-07T07:09:35.698Z,340
2018-08-07T07:10:43.741Z,340
2018-08-07T07:11:51.772Z,345
2018-08-07T07:12:59.824Z,345
2018-08-07T07:14:07.912Z,350
2018-08-07T07:15:15.957Z,355
2018-08-07T07:16:24.067Z,360
2018-08-07T07:17:32.129Z,370
2018-08-07T07:18:40.202Z,375
2018-08-07T07:19:48.286Z,385
2018-08-07T07:20:56.492Z,395
2018-08-07T07:22:05.235Z,410
2018-08-07T07:23:12.512Z,450
2018-08-07T07:24:20.625Z,490
2018-08-07T07:25:28.665Z,525
2018-08-07T07:26:38.353Z,605
2018-08-07T07:27:44.824Z,660
2018-08-07T07:28:52.942Z,615
2018-08-07T07:30:00.976Z,770
2018-08-07T07:31:09.067Z,870
2018-08-07T07:32:17.123Z,660
2018-08-07T07:33:25.182Z,615
2018-08-07T07:34:33.375Z,940
2018-08-07T07:35:41.378Z,1135
2018-08-07T07:36:49.425Z,1325
2018-08-07T07:38:00.876Z,1295
2018-08-07T07:39:06.171Z,1255
2018-08-07T07:40:13.657Z,1335
2018-08-07T07:41:21.893Z,1390
2018-08-07T07:42:32.637Z,1380
2018-08-07T07:43:37.913Z,1175
2018-08-07T07:44:45.952Z,930
2018-08-07T07:45:54.040Z,1005
2018-08-07T07:47:02.385Z,1065
2018-08-07T07:48:10.706Z,1110
2018-08-07T07:49:18.525Z,1130
2018-08-07T07:50:26.677Z,1205
2018-08-07T07:51:34.643Z,1200
2018-08-07T07:52:45.291Z,1145
2018-08-07T07:53:50.813Z,1080
2018-08-07T07:54:58.913Z,970
2018-08-07T07:56:06.985Z,960
2018-08-07T07:57:15.074Z,970
2018-08-07T07:58:23.343Z,975
2018-08-07T07:59:36.940Z,960
2018-08-07T08:00:40.706Z,965
2018-08-07T08:01:48.808Z,990
2018-08-07T08:02:56.875Z,1080
2018-08-07T08:04:04.976Z,1140
2018-08-07T08:05:13.327Z,1060
2018-08-07T08:06:21.131Z,1145
2018-08-07T08:07:29.467Z,1090
2018-08-07T08:08:37.391Z,1175
2018-08-07T08:09:45.353Z,1280
2018-08-07T08:10:54.142Z,1400
2018-08-07T08:12:01.551Z,1405
2018-08-07T08:13:09.635Z,1310
2018-08-07T08:14:18.084Z,1425
2018-08-07T08:15:25.834Z,1215
2018-08-07T08:16:34.563Z,1170
2018-08-07T08:17:42.657Z,1400
2018-08-07T08:18:50.654Z,1910
2018-08-07T08:19:58.762Z,2000
2018-08-07T08:21:06.825Z,1920
2018-08-07T08:22:14.937Z,1905
2018-08-07T08:23:23.004Z,1840
2018-08-07T08:24:31.158Z,1835
2018-08-07T08:25:39.171Z,1825
2018-08-07T08:26:47.489Z,1820
2018-08-07T08:27:55.525Z,1730
2018-08-07T08:29:03.733Z,1850
2018-08-07T08:30:11.857Z,1845
2018-08-07T08:31:19.786Z,1825
2018-08-07T08:32:28.184Z,1860
2018-08-07T08:33:35.972Z,1790
2018-08-07T08:34:44.141Z,1860
2018-08-07T08:35:52.166Z,1930
2018-08-07T08:37:00.219Z,2020
2018-08-07T08:38:08.306Z,2050
2018-08-07T08:39:16.385Z,2030
2018-08-07T08:40:24.495Z,2065
2018-08-07T08:41:32.560Z,2075
2018-08-07T08:42:40.684Z,2005
2018-08-07T08:43:48.735Z,1950
2018-08-07T08:44:56.825Z,2025
2018-08-07T08:46:07.519Z,2040
2018-08-07T08:47:15.630Z,2030
2018-08-07T08:48:23.738Z,2010
2018-08-07T08:49:31.810Z,2120
2018-08-07T08:50:40.543Z,2050
2018-08-07T08:51:48.163Z,2085
2018-08-07T08:52:56.260Z,2110
2018-08-07T08:54:04.375Z,2120
2018-08-07T08:55:12.424Z,2165
2018-08-07T08:56:20.504Z,2135
2018-08-07T08:57:28.615Z,2095
2018-08-07T08:58:36.688Z,2130
2018-08-07T08:59:44.766Z,2125
2018-08-07T09:00:52.849Z,2040
2018-08-07T09:02:04.061Z,2155
2018-08-07T09:03:09.011Z,2060
2018-08-07T09:04:19.001Z,2000
2018-08-07T09:05:25.177Z,2240
2018-08-07T09:06:33.373Z,2220
2018-08-07T09:07:41.987Z,2245
2018-08-07T09:08:49.473Z,2370
2018-08-07T09:09:57.857Z,2130
2018-08-07T09:11:05.630Z,1270
2018-08-07T09:12:13.728Z,780
2018-08-07T09:13:21.840Z,750
2018-08-07T09:14:30.196Z,750
2018-08-07T09:15:38.010Z,755
2018-08-07T09:16:46.257Z,765
2018-08-07T09:17:54.201Z,780
2018-08-07T09:19:02.240Z,775
2018-08-07T09:20:10.351Z,770
2018-08-07T09:21:18.412Z,750
2018-08-07T09:22:30.100Z,740
2018-08-07T09:23:38.706Z,730
2018-08-07T09:24:46.266Z,720
2018-08-07T09:25:54.649Z,730
2018-08-07T09:27:02.439Z,775
2018-08-07T09:28:10.508Z,840
2018-08-07T09:29:18.956Z,885
2018-08-07T09:30:28.071Z,910
2018-08-07T09:31:35.028Z,920
2018-08-07T09:32:44.514Z,895
2018-08-07T09:33:50.911Z,880
2018-08-07T09:34:59.216Z,835
2018-08-07T09:36:07.309Z,815
2018-08-07T09:37:26.133Z,795
2018-08-07T09:38:23.434Z,780
2018-08-07T09:39:31.521Z,795
2018-08-07T09:40:39.593Z,810
2018-08-07T09:41:47.696Z,815
2018-08-07T09:42:56.003Z,815
2018-08-07T09:44:07.566Z,805
2018-08-07T09:45:12.172Z,780
2018-08-07T09:46:20.317Z,760
2018-08-07T09:47:28.289Z,705
2018-08-07T09:48:36.397Z,655
2018-08-07T09:49:44.468Z,620
2018-08-07T09:50:52.533Z,595
2018-08-07T09:52:00.623Z,585
2018-08-07T09:53:08.694Z,580
2018-08-07T09:54:16.791Z,585
2018-08-07T09:56:33.215Z,600
2018-08-07T09:57:41.063Z,605
2018-08-07T09:58:51.003Z,600
2018-08-07T09:59:57.184Z,585
2018-08-07T10:01:05.264Z,580
2018-08-07T10:02:13.342Z,575
2018-08-07T10:03:21.517Z,570
2018-08-07T10:04:29.511Z,570
2018-08-07T10:05:37.700Z,575
2018-08-07T10:06:49.704Z,590
2018-08-07T10:08:01.543Z,605
2018-08-07T10:09:05.896Z,620
2018-08-07T10:10:13.979Z,615
2018-08-07T10:11:22.034Z,615
2018-08-07T10:12:30.161Z,590
2018-08-07T10:13:38.195Z,570
2018-08-07T10:14:46.291Z,555
2018-08-07T10:15:54.350Z,550
2018-08-07T10:17:02.455Z,545
2018-08-07T10:18:10.509Z,525
2018-08-07T10:19:18.604Z,530
2018-08-07T10:20:26.681Z,510
2018-08-07T10:21:34.791Z,505
2018-08-07T10:22:42.849Z,505
2018-08-07T10:23:51.072Z,525
2018-08-07T10:24:59.083Z,540
2018-08-07T10:26:07.105Z,545
2018-08-07T10:27:15.169Z,565
2018-08-07T10:28:26.744Z,585
2018-08-07T10:29:31.425Z,600
2018-08-07T10:30:39.560Z,605
2018-08-07T10:31:47.497Z,605
2018-08-07T10:32:55.563Z,620
2018-08-07T10:34:03.692Z,620
2018-08-07T10:35:11.898Z,615
2018-08-07T10:36:19.807Z,610
2018-08-07T10:37:28.003Z,585
2018-08-07T10:38:35.940Z,565
2018-08-07T10:39:44.299Z,545
2018-08-07T10:40:52.310Z,535
2018-08-07T10:42:00.202Z,525
2018-08-07T10:43:08.365Z,525
2018-08-07T10:44:16.412Z,515
2018-08-07T10:45:24.500Z,505
2018-08-07T10:46:32.625Z,500
2018-08-07T10:47:40.712Z,500
2018-08-07T10:48:48.696Z,510
2018-08-07T10:49:56.799Z,525
2018-08-07T10:51:05.113Z,515
2018-08-07T10:52:13.203Z,520
2018-08-07T10:53:21.221Z,525
2018-08-07T10:54:32.839Z,540
2018-08-07T10:56:54.533Z,615
2018-08-07T10:58:02.634Z,635
2018-08-07T10:59:10.698Z,655
2018-08-07T11:00:18.804Z,685
2018-08-07T11:01:27.016Z,720
2018-08-07T11:02:34.966Z,730
2018-08-07T11:03:43.028Z,730
2018-08-07T11:04:51.104Z,705
2018-08-07T11:05:59.178Z,700
2018-08-07T11:07:07.271Z,685
2018-08-07T11:08:15.391Z,655
2018-08-07T11:09:26.396Z,635
2018-08-07T11:10:33.728Z,615
2018-08-07T11:11:42.378Z,570
2018-08-07T11:12:50.115Z,575
2018-08-07T11:13:58.274Z,605
2018-08-07T11:15:06.238Z,585
2018-08-07T11:16:14.415Z,580
2018-08-07T11:17:22.391Z,595
2018-08-07T11:18:30.692Z,590
2018-08-07T11:19:39.075Z,585
2018-08-07T11:20:46.839Z,590
2018-08-07T11:21:54.928Z,580
2018-08-07T11:23:03.234Z,555
2018-08-07T11:24:11.289Z,535
2018-08-07T11:25:19.507Z,535
2018-08-07T11:26:27.461Z,545
2018-08-07T11:27:35.515Z,560
2018-08-07T11:28:43.627Z,570
2018-08-07T11:29:55.170Z,565
2018-08-07T11:30:59.793Z,560
2018-08-07T11:32:07.896Z,555
2018-08-07T11:33:17.020Z,540
2018-08-07T11:34:24.228Z,515
2018-08-07T11:35:32.310Z,490
2018-08-07T11:36:40.391Z,470
2018-08-07T11:37:48.498Z,450
2018-08-07T11:38:56.560Z,460
2018-08-07T11:40:04.647Z,460
2018-08-07T11:41:12.757Z,480
2018-08-07T11:42:20.805Z,490
2018-08-07T11:43:28.869Z,515
2018-08-07T11:44:36.973Z,520
2018-08-07T11:45:45.034Z,505
2018-08-07T11:46:53.123Z,500
2018-08-07T11:48:01.309Z,500
2018-08-07T11:49:09.270Z,495
2018-08-07T11:50:17.367Z,490
2018-08-07T11:51:25.411Z,495
2018-08-07T11:52:33.511Z,505
2018-08-07T11:53:41.588Z,515
2018-08-07T11:54:49.907Z,515
2018-08-07T11:55:57.753Z,520
2018-08-07T11:57:05.873Z,510
2018-08-07T11:58:13.904Z,485
2018-08-07T11:59:22.007Z,485
2018-08-07T12:00:30.076Z,490
2018-08-07T12:01:38.158Z,505
2018-08-07T12:02:46.433Z,525
2018-08-07T12:03:54.537Z,540
2018-08-07T12:05:02.587Z,550
2018-08-07T12:06:10.684Z,550
2018-08-07T12:07:18.761Z,560
2018-08-07T12:08:27.115Z,605
2018-08-07T12:09:35.112Z,660
2018-08-07T12:10:43.201Z,710
2018-08-07T12:11:51.281Z,740
2018-08-07T12:12:59.480Z,775
2018-08-07T12:14:07.652Z,815
2018-08-07T12:15:16.790Z,850
2018-08-07T12:16:23.874Z,865
2018-08-07T12:17:32.220Z,875
2018-08-07T12:18:40.069Z,870
2018-08-07T12:19:48.140Z,885
2018-08-07T12:20:56.110Z,915
2018-08-07T12:22:05.667Z,915
2018-08-07T12:23:12.291Z,900
2018-08-07T12:24:20.360Z,880
2018-08-07T12:25:28.489Z,855
2018-08-07T12:26:38.460Z,835
2018-08-07T12:27:44.883Z,845
2018-08-07T12:28:52.924Z,865
2018-08-07T12:30:00.987Z,860
2018-08-07T12:31:09.090Z,820
2018-08-07T12:32:17.150Z,730
2018-08-07T12:33:25.401Z,675
2018-08-07T12:34:33.509Z,635
2018-08-07T12:35:41.580Z,635
2018-08-07T12:36:49.684Z,635
2018-08-07T12:37:57.759Z,600
2018-08-07T12:39:05.862Z,535
2018-08-07T12:40:15.328Z,485
2018-08-07T12:41:21.999Z,465
2018-08-07T12:42:30.863Z,455
2018-08-07T12:43:38.171Z,440
2018-08-07T12:44:49.652Z,390
2018-08-07T12:45:54.326Z,335
2018-08-07T12:47:02.432Z,280
2018-08-07T12:48:10.482Z,250
2018-08-07T12:49:18.704Z,220
2018-08-07T12:50:26.654Z,200
2018-08-07T12:51:34.746Z,190
2018-08-07T12:52:42.807Z,190
2018-08-07T12:53:50.926Z,185
2018-08-07T12:54:58.961Z,180
2018-08-07T12:56:07.056Z,185
2018-08-07T12:57:15.118Z,200
2018-08-07T12:58:23.229Z,225
2018-08-07T12:59:31.290Z,255
2018-08-07T13:00:39.365Z,295
2018-08-07T13:01:47.456Z,340
2018-08-07T13:02:55.502Z,380
2018-08-07T13:04:03.609Z,430
2018-08-07T13:05:11.702Z,495
2018-08-07T13:06:23.185Z,555
2018-08-07T13:07:27.862Z,595
2018-08-07T13:08:35.929Z,645
2018-08-07T13:09:44.002Z,690
2018-08-07T13:10:52.118Z,705
2018-08-07T13:12:00.359Z,690
2018-08-07T13:13:08.272Z,650
2018-08-07T13:14:16.315Z,610
2018-08-07T13:15:24.422Z,575
2018-08-07T13:16:32.652Z,565
2018-08-07T13:17:40.694Z,565
2018-08-07T13:18:48.640Z,570
2018-08-07T13:19:56.722Z,570
2018-08-07T13:21:04.804Z,575
2018-08-07T13:22:12.876Z,555
2018-08-07T13:23:21.180Z,535
2018-08-07T13:24:29.260Z,550
2018-08-07T13:25:37.636Z,545
2018-08-07T13:26:45.383Z,520
2018-08-07T13:27:53.477Z,505
2018-08-07T13:29:01.580Z,495
2018-08-07T13:30:09.633Z,475
2018-08-07T13:31:17.785Z,460
2018-08-07T13:32:25.768Z,435
2018-08-07T13:33:33.968Z,420
2018-08-07T13:34:42.051Z,405
2018-08-07T13:35:50.283Z,385
2018-08-07T13:36:58.333Z,370
2018-08-07T13:38:06.395Z,360
2018-08-07T13:39:14.475Z,350
2018-08-07T13:40:22.545Z,355
2018-08-07T13:41:30.631Z,375
2018-08-07T13:42:38.736Z,400
2018-08-07T13:43:46.793Z,435
2018-08-07T13:44:54.879Z,455
2018-08-07T13:46:02.943Z,490
2018-08-07T13:47:11.023Z,525
2018-08-07T13:48:19.233Z,560
2018-08-07T13:49:27.194Z,580
2018-08-07T13:50:35.270Z,585
2018-08-07T13:51:43.399Z,585
2018-08-07T13:52:51.426Z,575
2018-08-07T13:53:59.502Z,540
2018-08-07T13:55:10.006Z,510
2018-08-07T13:56:15.640Z,470
2018-08-07T13:57:24.034Z,415
2018-08-07T13:58:31.834Z,350
2018-08-07T13:59:41.346Z,320
2018-08-07T14:00:48.192Z,325
2018-08-07T14:01:57.469Z,345
2018-08-07T14:03:05.301Z,355
2018-08-07T14:04:13.394Z,350
2018-08-07T14:05:21.485Z,345
2018-08-07T14:06:37.161Z,320
2018-08-07T14:07:45.122Z,310
2018-08-07T14:08:53.195Z,315
2018-08-07T14:10:01.260Z,330
2018-08-07T14:11:09.595Z,355
2018-08-07T14:12:17.706Z,370
2018-08-07T14:13:25.457Z,365
2018-08-07T14:14:33.701Z,365
2018-08-07T14:15:41.685Z,340
2018-08-07T14:16:49.731Z,315
2018-08-07T14:17:57.803Z,295
2018-08-07T14:19:05.851Z,270
2018-08-07T14:20:13.984Z,250
2018-08-07T14:21:22.062Z,240
2018-08-07T14:22:30.140Z,235
2018-08-07T14:23:38.407Z,230
2018-08-07T14:24:46.505Z,230
2018-08-07T14:25:54.561Z,230
2018-08-07T14:27:02.658Z,240
2018-08-07T14:28:10.720Z,250
2018-08-07T14:29:20.303Z,270
2018-08-07T14:30:26.864Z,305
2018-08-07T14:31:38.591Z,325
2018-08-07T14:32:43.018Z,345
2018-08-07T14:33:53.656Z,345
2018-08-07T14:34:59.352Z,345
2018-08-07T14:36:07.593Z,340
2018-08-07T14:37:15.317Z,340
2018-08-07T14:38:23.438Z,340
2018-08-07T14:39:31.616Z,340
2018-08-07T14:40:39.941Z,345
2018-08-07T14:41:47.632Z,335
2018-08-07T14:42:55.712Z,300
2018-08-07T14:44:03.795Z,270
2018-08-07T14:45:11.970Z,245
2018-08-07T14:46:20.043Z,245
2018-08-07T14:47:28.028Z,245
2018-08-07T14:48:36.087Z,230
2018-08-07T14:49:44.179Z,200
2018-08-07T14:50:52.576Z,175
2018-08-07T14:52:00.390Z,150
2018-08-07T14:53:08.409Z,140
2018-08-07T14:54:16.466Z,140
2018-08-07T14:55:24.569Z,155
2018-08-07T14:56:32.627Z,190
2018-08-07T14:57:40.732Z,220
2018-08-07T14:58:49.054Z,250
2018-08-07T14:59:56.982Z,300
2018-08-07T15:01:05.292Z,345
2018-08-07T15:02:13.354Z,390
2018-08-07T15:03:21.087Z,440
2018-08-07T15:04:29.186Z,475
2018-08-07T15:05:37.246Z,490
2018-08-07T15:06:45.311Z,495
2018-08-07T15:07:53.396Z,510
2018-08-07T15:09:01.475Z,530
2018-08-07T15:10:09.547Z,520
2018-08-07T15:11:17.804Z,490
2018-08-07T15:12:25.718Z,465
2018-08-07T15:13:33.780Z,450
2018-08-07T15:14:41.848Z,445
2018-08-07T15:15:49.944Z,455
2018-08-07T15:16:58.673Z,480
2018-08-07T15:18:06.050Z,470
2018-08-07T15:19:14.186Z,445
2018-08-07T15:20:22.286Z,390
2018-08-07T15:21:30.654Z,365
2018-08-07T15:22:38.390Z,350
2018-08-07T15:23:46.450Z,335
2018-08-07T15:24:54.538Z,335
2018-08-07T15:26:04.075Z,335
2018-08-07T15:27:10.673Z,335
2018-08-07T15:28:18.745Z,330
2018-08-07T15:29:26.891Z,310
2018-08-07T15:30:34.917Z,290
2018-08-07T15:31:42.988Z,260
2018-08-07T15:32:51.062Z,235
2018-08-07T15:33:59.433Z,225
2018-08-07T15:35:07.471Z,230
2018-08-07T15:36:15.488Z,225
2018-08-07T15:37:23.571Z,220
2018-08-07T15:38:31.690Z,215
2018-08-07T15:39:41.002Z,205
2018-08-07T15:40:50.428Z,200
2018-08-07T15:41:57.163Z,195
2018-08-07T15:43:05.236Z,190
2018-08-07T15:44:13.296Z,195
2018-08-07T15:45:21.683Z,195
2018-08-07T15:46:29.455Z,190
2018-08-07T15:47:37.542Z,190
2018-08-07T15:48:45.569Z,195
2018-08-07T15:49:54.299Z,190
2018-08-07T15:51:01.802Z,190
2018-08-07T15:52:10.352Z,180
2018-08-07T15:53:17.952Z,180
2018-08-07T15:54:26.049Z,170
2018-08-07T15:55:34.342Z,175
2018-08-07T15:56:42.800Z,205
2018-08-07T15:57:50.192Z,240